Skip Navigation LinksHome page > Weather > Current weather Skip Navigation Links

Current Weather

Chicago Midway, Chicago

For information only: do not use for flight planning or navigation.
Latest weather
Observation time Wednesday, October 27, 2021 1:53 AM CDT
Local time Wednesday, October 27, 2021 2:31 AM CDT
Flight conditions Visual Meteorological Conditions
Winds
Wind speed calm
Visibility 10 mi.
Sky condition
Ceiling unlimited
Cloud layer few clouds 2,600 ft.
Temperature 41°F
Dewpoint 36°F
Altimeter 30.02 in.Hg
Derived measurements
Relative humidity 82%
Wind chill 41°F
Density altitude -596 ft.
Sea-level pressure 30.03 in.Hg
Remarks
Automated weather observing station with precipitation discriminator.
METAR KMDW 270653Z 00000KT 10SM FEW026 05/02 A3002 RMK AO2 SLP168 T00500022

Settings

Location code

InnerDrive.Weather 4.0.6770.0 Release CLR 4.0.30319.42000
Copyright ©2018 Inner Drive Technology. All rights reserved. Portions Copyright ©1986-2018 David Braverman.

Find weather

Site navigation


Skip Navigation Links

Place info

Page info

PayPal - The safer, easier way to pay online!

Return home.

Copyright ©2021 Inner Drive Technology. Purveyors of fine, hand-crafted computer software. Page printed 2021-10-27T07:31:04 UTC.